OIGG

Details ICAO OIGG (RAS)
Name RASHT
Region Iran
Timezone Asia/Tehran (UTC+3.5)
Plans Departing 16
Arriving 21
Stats Elevation -40 ft / -12 m (AMSL)
Location 37.325546° 49.605571°
Runways 1
Magnetic Variation 5.283° E
Sunrise 2017-12-18 03:51:41 UTC / 2017-12-18 07:21:41 Local
Sunset 2017-12-18 13:27:16 UTC / 2017-12-18 16:57:16 Local
Advertisement - Login to hide

Runways

ID Width Length Bearing (true) Bearing (mag) Surface Threshold Offset Overrun Length
09 148 ft / 45 m 9,552 ft / 2,911 m 93.84° 88.56° Asphalt 1,973 ft / 601 m 492 ft / 150 m
27 148 ft / 45 m 9,552 ft / 2,911 m 273.86° 268.58° Asphalt 0 ft / 0 m 0 ft / 0 m

Approach Navaids

Runway Type Ident Frequency Range Bearing (true) Bearing (mag) Slope Elevation
27 Localiser IRST 109.90 MHz 18 nm / 33 km 273.83° 268.55° - -40 ft / -12 m (AMSL)
27 Glidescope IRST 109.90 MHz 10 nm / 19 km 273.85° 268.57° 3.00° -40 ft / -12 m (AMSL)
27 DME IRST 109.90 MHz 18 nm / 33 km - - - -40 ft / -12 m (AMSL)

Map

Weather


0- 5 10 15 20 25 30 35+ Temperature / ° C

Clouds and Precipitation
Forecast for 2017-12-18 06:00 UTC. Updated 2 hours ago

Ground ~20,000 ft ~40,000 ft Winds

METAR

OIGG 180500Z 10004KT 2000 BR SCT025 BKN070 08/07 Q1024

TAF

Not found

Frequencies

Recorded 126.20 MHz INFO
Tower 122.70 MHz TWR
Tower 121.90 MHz TWR
Warning: Do not use this data for real-world aviation or navigation. No guarantee of current accuracy is given.